sensor_id;sensor_type;location;lat;lon;timestamp;pressure;altitude;pressure_sealevel;temperature;humidity
31092;BME280;67728;53.122;12.776;2023-08-20T00:00:05;100988.44;;;23.75;86.30
31092;BME280;67728;53.122;12.776;2023-08-20T00:01:37;100983.69;;;23.80;85.88
31092;BME280;67728;53.122;12.776;2023-08-20T00:03:11;100994.41;;;23.78;86.05
31092;BME280;67728;53.122;12.776;2023-08-20T00:04:46;100997.13;;;23.77;86.21
31092;BME280;67728;53.122;12.776;2023-08-20T00:06:19;100995.84;;;23.70;86.80
31092;BME280;67728;53.122;12.776;2023-08-20T00:07:51;100996.97;;;23.66;87.52
31092;BME280;67728;53.122;12.776;2023-08-20T00:09:24;100995.09;;;23.68;87.48
31092;BME280;67728;53.122;12.776;2023-08-20T00:10:57;101004.09;;;23.65;87.25
31092;BME280;67728;53.122;12.776;2023-08-20T00:12:28;100996.91;;;23.67;87.32
31092;BME280;67728;53.122;12.776;2023-08-20T00:13:59;100998.38;;;23.71;86.85
31092;BME280;67728;53.122;12.776;2023-08-20T00:15:31;101002.34;;;23.78;86.11
31092;BME280;67728;53.122;12.776;2023-08-20T00:17:02;101002.44;;;23.77;86.62
31092;BME280;67728;53.122;12.776;2023-08-20T00:18:34;100997.44;;;23.72;86.50
31092;BME280;67728;53.122;12.776;2023-08-20T00:20:06;100999.16;;;23.73;86.07
31092;BME280;67728;53.122;12.776;2023-08-20T00:21:41;101002.03;;;23.83;85.39
31092;BME280;67728;53.122;12.776;2023-08-20T00:23:15;101004.16;;;23.78;86.48
31092;BME280;67728;53.122;12.776;2023-08-20T00:24:47;101009.84;;;23.72;86.30
31092;BME280;67728;53.122;12.776;2023-08-20T00:26:19;101006.44;;;23.70;86.32
31092;BME280;67728;53.122;12.776;2023-08-20T00:27:51;101018.72;;;23.71;86.17
31092;BME280;67728;53.122;12.776;2023-08-20T00:29:21;101005.69;;;23.68;86.15
31092;BME280;67728;53.122;12.776;2023-08-20T00:30:53;101017.34;;;23.65;86.38
31092;BME280;67728;53.122;12.776;2023-08-20T00:32:23;101025.38;;;23.64;86.40
31092;BME280;67728;53.122;12.776;2023-08-20T00:33:55;101023.91;;;23.60;86.50
31092;BME280;67728;53.122;12.776;2023-08-20T00:35:26;101028.84;;;23.52;86.99
31092;BME280;67728;53.122;12.776;2023-08-20T00:36:57;101031.66;;;23.49;87.24
31092;BME280;67728;53.122;12.776;2023-08-20T00:38:28;101031.75;;;23.47;87.09
31092;BME280;67728;53.122;12.776;2023-08-20T00:40:02;101037.16;;;23.46;87.10
31092;BME280;67728;53.122;12.776;2023-08-20T00:41:35;101035.16;;;23.49;86.81
31092;BME280;67728;53.122;12.776;2023-08-20T00:43:06;101034.31;;;23.49;86.92
31092;BME280;67728;53.122;12.776;2023-08-20T00:44:37;101029.22;;;23.46;87.06
31092;BME280;67728;53.122;12.776;2023-08-20T00:46:09;101036.78;;;23.38;87.58
31092;BME280;67728;53.122;12.776;2023-08-20T00:47:40;101026.22;;;23.38;87.47
31092;BME280;67728;53.122;12.776;2023-08-20T00:49:11;101027.31;;;23.34;87.78
31092;BME280;67728;53.122;12.776;2023-08-20T00:50:43;101033.56;;;23.33;88.04
31092;BME280;67728;53.122;12.776;2023-08-20T00:52:16;101029.19;;;23.32;87.93
31092;BME280;67728;53.122;12.776;2023-08-20T00:53:47;101031.84;;;23.32;87.61
31092;BME280;67728;53.122;12.776;2023-08-20T00:55:19;101040.72;;;23.31;87.86
31092;BME280;67728;53.122;12.776;2023-08-20T00:56:51;101033.94;;;23.27;88.22
31092;BME280;67728;53.122;12.776;2023-08-20T00:58:22;101044.81;;;23.22;88.19
31092;BME280;67728;53.122;12.776;2023-08-20T00:59:54;101044.16;;;23.18;88.52
31092;BME280;67728;53.122;12.776;2023-08-20T01:01:27;101045.19;;;23.16;88.48
31092;BME280;67728;53.122;12.776;2023-08-20T01:02:58;101050.75;;;23.11;88.86
31092;BME280;67728;53.122;12.776;2023-08-20T01:04:29;101049.94;;;23.11;88.74
31092;BME280;67728;53.122;12.776;2023-08-20T01:06:08;101054.38;;;23.10;88.77
31092;BME280;67728;53.122;12.776;2023-08-20T01:07:49;101052.94;;;23.05;88.68
31092;BME280;67728;53.122;12.776;2023-08-20T01:09:36;101050.31;;;23.05;89.05
31092;BME280;67728;53.122;12.776;2023-08-20T01:11:17;101056.53;;;23.04;89.26
31092;BME280;67728;53.122;12.776;2023-08-20T01:12:50;101057.00;;;22.96;89.57
31092;BME280;67728;53.122;12.776;2023-08-20T01:14:22;101055.28;;;22.95;90.13
31092;BME280;67728;53.122;12.776;2023-08-20T01:15:53;101052.88;;;22.92;89.78
31092;BME280;67728;53.122;12.776;2023-08-20T01:17:25;101051.03;;;22.93;89.88
31092;BME280;67728;53.122;12.776;2023-08-20T01:18:55;101060.81;;;22.92;89.95
31092;BME280;67728;53.122;12.776;2023-08-20T01:20:30;101055.69;;;22.89;90.29
31092;BME280;67728;53.122;12.776;2023-08-20T01:22:20;101055.50;;;22.78;90.62
31092;BME280;67728;53.122;12.776;2023-08-20T01:24:10;101054.44;;;22.81;90.56
31092;BME280;67728;53.122;12.776;2023-08-20T01:25:57;101053.88;;;22.76;91.24
31092;BME280;67728;53.122;12.776;2023-08-20T01:27:41;101059.25;;;22.74;91.06
31092;BME280;67728;53.122;12.776;2023-08-20T01:29:16;101057.38;;;22.76;91.15
31092;BME280;67728;53.122;12.776;2023-08-20T01:30:48;101053.81;;;22.61;91.93
31092;BME280;67728;53.122;12.776;2023-08-20T01:32:20;101058.44;;;22.58;91.79
31092;BME280;67728;53.122;12.776;2023-08-20T01:33:53;101056.47;;;22.61;91.93
31092;BME280;67728;53.122;12.776;2023-08-20T01:35:25;101053.81;;;22.61;92.51
31092;BME280;67728;53.122;12.776;2023-08-20T01:36:57;101061.00;;;22.59;92.16
31092;BME280;67728;53.122;12.776;2023-08-20T01:38:27;101058.72;;;22.53;92.35
31092;BME280;67728;53.122;12.776;2023-08-20T01:39:59;101059.47;;;22.55;92.33
31092;BME280;67728;53.122;12.776;2023-08-20T01:41:29;101066.38;;;22.58;91.98
31092;BME280;67728;53.122;12.776;2023-08-20T01:43:01;101065.63;;;22.56;92.37
31092;BME280;67728;53.122;12.776;2023-08-20T01:44:33;101061.66;;;22.49;92.73
31092;BME280;67728;53.122;12.776;2023-08-20T01:46:04;101070.59;;;22.46;92.88
31092;BME280;67728;53.122;12.776;2023-08-20T01:47:35;101071.38;;;22.48;92.72
31092;BME280;67728;53.122;12.776;2023-08-20T01:49:07;101068.78;;;22.47;92.81
31092;BME280;67728;53.122;12.776;2023-08-20T01:50:37;101069.56;;;22.49;92.68
31092;BME280;67728;53.122;12.776;2023-08-20T01:52:09;101068.16;;;22.43;92.97
31092;BME280;67728;53.122;12.776;2023-08-20T01:53:39;101075.28;;;22.41;92.86
31092;BME280;67728;53.122;12.776;2023-08-20T01:55:11;101077.28;;;22.38;93.07
31092;BME280;67728;53.122;12.776;2023-08-20T01:56:42;101079.75;;;22.41;93.19
31092;BME280;67728;53.122;12.776;2023-08-20T01:58:13;101074.63;;;22.38;93.24
31092;BME280;67728;53.122;12.776;2023-08-20T01:59:45;101079.53;;;22.30;93.59
31092;BME280;67728;53.122;12.776;2023-08-20T02:01:17;101084.88;;;22.28;93.72
31092;BME280;67728;53.122;12.776;2023-08-20T02:02:47;101085.91;;;22.26;93.83
31092;BME280;67728;53.122;12.776;2023-08-20T02:04:19;101082.41;;;22.25;93.69
31092;BME280;67728;53.122;12.776;2023-08-20T02:05:50;101085.16;;;22.24;93.84
31092;BME280;67728;53.122;12.776;2023-08-20T02:07:21;101095.72;;;22.24;94.01
31092;BME280;67728;53.122;12.776;2023-08-20T02:08:52;101098.72;;;22.18;94.38
31092;BME280;67728;53.122;12.776;2023-08-20T02:10:23;101095.38;;;22.14;94.14
31092;BME280;67728;53.122;12.776;2023-08-20T02:11:54;101091.66;;;22.18;94.56
31092;BME280;67728;53.122;12.776;2023-08-20T02:13:26;101087.28;;;22.17;94.23
31092;BME280;67728;53.122;12.776;2023-08-20T02:14:58;101102.31;;;22.17;94.24
31092;BME280;67728;53.122;12.776;2023-08-20T02:16:29;101090.88;;;22.16;94.32
31092;BME280;67728;53.122;12.776;2023-08-20T02:18:00;101106.81;;;22.15;94.25
31092;BME280;67728;53.122;12.776;2023-08-20T02:19:32;101101.81;;;22.10;94.38
31092;BME280;67728;53.122;12.776;2023-08-20T02:21:03;101103.75;;;22.07;94.53
31092;BME280;67728;53.122;12.776;2023-08-20T02:22:35;101104.72;;;22.06;94.75
31092;BME280;67728;53.122;12.776;2023-08-20T02:24:06;101103.94;;;22.03;94.86
31092;BME280;67728;53.122;12.776;2023-08-20T02:25:38;101112.06;;;22.00;94.96
31092;BME280;67728;53.122;12.776;2023-08-20T02:27:08;101112.88;;;22.01;95.14
31092;BME280;67728;53.122;12.776;2023-08-20T02:28:40;101114.59;;;22.02;94.85
31092;BME280;67728;53.122;12.776;2023-08-20T02:30:13;101116.47;;;22.00;94.94
31092;BME280;67728;53.122;12.776;2023-08-20T02:31:43;101121.94;;;21.97;95.12
31092;BME280;67728;53.122;12.776;2023-08-20T02:33:15;101116.88;;;21.92;95.24
31092;BME280;67728;53.122;12.776;2023-08-20T02:34:49;101119.34;;;21.95;95.44
31092;BME280;67728;53.122;12.776;2023-08-20T02:36:21;101120.53;;;21.90;95.76
31092;BME280;67728;53.122;12.776;2023-08-20T02:37:53;101114.50;;;21.88;95.80
31092;BME280;67728;53.122;12.776;2023-08-20T02:39:23;101119.78;;;21.88;95.98
31092;BME280;67728;53.122;12.776;2023-08-20T02:40:55;101123.28;;;21.88;95.93
31092;BME280;67728;53.122;12.776;2023-08-20T02:42:27;101121.72;;;21.84;96.35
31092;BME280;67728;53.122;12.776;2023-08-20T02:43:57;101127.19;;;21.81;96.83
31092;BME280;67728;53.122;12.776;2023-08-20T02:45:30;101121.81;;;21.83;96.85
31092;BME280;67728;53.122;12.776;2023-08-20T02:47:03;101125.31;;;21.83;96.85
31092;BME280;67728;53.122;12.776;2023-08-20T02:48:33;101119.25;;;21.81;97.09
31092;BME280;67728;53.122;12.776;2023-08-20T02:50:05;101120.28;;;21.79;97.33
31092;BME280;67728;53.122;12.776;2023-08-20T02:51:36;101122.06;;;21.78;97.46
31092;BME280;67728;53.122;12.776;2023-08-20T02:53:07;101122.06;;;21.78;97.78
31092;BME280;67728;53.122;12.776;2023-08-20T02:54:38;101123.91;;;21.76;97.35
31092;BME280;67728;53.122;12.776;2023-08-20T02:56:10;101125.63;;;21.77;97.77
31092;BME280;67728;53.122;12.776;2023-08-20T02:57:41;101114.38;;;21.74;97.97
31092;BME280;67728;53.122;12.776;2023-08-20T02:59:12;101117.28;;;21.69;98.32
31092;BME280;67728;53.122;12.776;2023-08-20T03:00:44;101120.84;;;21.68;98.33
31092;BME280;67728;53.122;12.776;2023-08-20T03:02:16;101114.06;;;21.64;98.71
31092;BME280;67728;53.122;12.776;2023-08-20T03:03:46;101121.38;;;21.59;99.29
31092;BME280;67728;53.122;12.776;2023-08-20T03:05:18;101119.59;;;21.60;98.66
31092;BME280;67728;53.122;12.776;2023-08-20T03:06:49;101118.03;;;21.56;99.29
31092;BME280;67728;53.122;12.776;2023-08-20T03:08:20;101114.53;;;21.55;99.51
31092;BME280;67728;53.122;12.776;2023-08-20T03:09:51;101117.97;;;21.57;99.34
31092;BME280;67728;53.122;12.776;2023-08-20T03:11:22;101117.28;;;21.54;99.78
31092;BME280;67728;53.122;12.776;2023-08-20T03:12:53;101113.88;;;21.52;99.64
31092;BME280;67728;53.122;12.776;2023-08-20T03:14:24;101121.78;;;21.52;99.80
31092;BME280;67728;53.122;12.776;2023-08-20T03:15:56;101117.19;;;21.55;99.83
31092;BME280;67728;53.122;12.776;2023-08-20T03:17:28;101119.81;;;21.55;99.73
31092;BME280;67728;53.122;12.776;2023-08-20T03:18:59;101127.69;;;21.57;99.91
31092;BME280;67728;53.122;12.776;2023-08-20T03:20:30;101131.34;;;21.54;99.98
31092;BME280;67728;53.122;12.776;2023-08-20T03:22:01;101126.06;;;21.54;99.78
31092;BME280;67728;53.122;12.776;2023-08-20T03:23:33;101132.09;;;21.56;100.00
31092;BME280;67728;53.122;12.776;2023-08-20T03:25:04;101123.41;;;21.54;99.62
31092;BME280;67728;53.122;12.776;2023-08-20T03:26:36;101116.50;;;21.52;100.00
31092;BME280;67728;53.122;12.776;2023-08-20T03:28:06;101125.34;;;21.51;100.00
31092;BME280;67728;53.122;12.776;2023-08-20T03:29:38;101121.97;;;21.49;100.00
31092;BME280;67728;53.122;12.776;2023-08-20T03:31:10;101123.56;;;21.51;100.00
31092;BME280;67728;53.122;12.776;2023-08-20T03:32:41;101124.59;;;21.49;100.00
31092;BME280;67728;53.122;12.776;2023-08-20T03:34:12;101128.91;;;21.50;100.00
31092;BME280;67728;53.122;12.776;2023-08-20T03:35:45;101129.78;;;21.50;100.00
31092;BME280;67728;53.122;12.776;2023-08-20T03:37:16;101135.00;;;21.52;100.00
31092;BME280;67728;53.122;12.776;2023-08-20T03:38:48;101136.94;;;21.48;100.00
31092;BME280;67728;53.122;12.776;2023-08-20T03:40:19;101139.56;;;21.48;100.00
31092;BME280;67728;53.122;12.776;2023-08-20T03:41:50;101141.91;;;21.54;100.00
31092;BME280;67728;53.122;12.776;2023-08-20T03:43:22;101138.56;;;21.51;100.00
31092;BME280;67728;53.122;12.776;2023-08-20T03:44:53;101140.28;;;21.52;100.00
31092;BME280;67728;53.122;12.776;2023-08-20T03:46:25;101146.63;;;21.48;100.00
31092;BME280;67728;53.122;12.776;2023-08-20T03:47:57;101146.63;;;21.48;100.00
31092;BME280;67728;53.122;12.776;2023-08-20T03:49:27;101147.41;;;21.50;100.00
31092;BME280;67728;53.122;12.776;2023-08-20T03:50:59;101148.34;;;21.49;100.00
31092;BME280;67728;53.122;12.776;2023-08-20T03:52:30;101156.13;;;21.52;99.79
31092;BME280;67728;53.122;12.776;2023-08-20T03:54:01;101154.13;;;21.55;99.38
31092;BME280;67728;53.122;12.776;2023-08-20T03:55:33;101152.53;;;21.53;99.37
31092;BME280;67728;53.122;12.776;2023-08-20T03:57:04;101156.34;;;21.47;99.68
31092;BME280;67728;53.122;12.776;2023-08-20T03:58:35;101157.13;;;21.49;99.86
31092;BME280;67728;53.122;12.776;2023-08-20T04:00:06;101160.69;;;21.48;99.61
31092;BME280;67728;53.122;12.776;2023-08-20T04:01:41;101158.81;;;21.50;99.62
31092;BME280;67728;53.122;12.776;2023-08-20T04:03:12;101159.69;;;21.51;99.38
31092;BME280;67728;53.122;12.776;2023-08-20T04:04:44;101155.41;;;21.48;99.61
31092;BME280;67728;53.122;12.776;2023-08-20T04:06:15;101165.97;;;21.48;99.49
31092;BME280;67728;53.122;12.776;2023-08-20T04:07:46;101159.13;;;21.44;99.61
31092;BME280;67728;53.122;12.776;2023-08-20T04:09:17;101161.88;;;21.42;99.58
31092;BME280;67728;53.122;12.776;2023-08-20T04:10:48;101170.66;;;21.43;99.59
31092;BME280;67728;53.122;12.776;2023-08-20T04:12:19;101168.00;;;21.43;99.60
31092;BME280;67728;53.122;12.776;2023-08-20T04:13:50;101156.59;;;21.42;99.63
31092;BME280;67728;53.122;12.776;2023-08-20T04:15:21;101156.31;;;21.31;99.54
31092;BME280;67728;53.122;12.776;2023-08-20T04:16:54;101146.44;;;21.35;99.30
31092;BME280;67728;53.122;12.776;2023-08-20T04:18:25;101154.44;;;21.33;99.15
31092;BME280;67728;53.122;12.776;2023-08-20T04:19:56;101151.94;;;21.30;99.47
31092;BME280;67728;53.122;12.776;2023-08-20T04:21:27;101157.22;;;21.30;99.16
31092;BME280;67728;53.122;12.776;2023-08-20T04:22:59;101152.19;;;21.26;99.17
31092;BME280;67728;53.122;12.776;2023-08-20T04:24:30;101150.41;;;21.26;99.28
31092;BME280;67728;53.122;12.776;2023-08-20T04:26:01;101156.72;;;21.24;98.84
31092;BME280;67728;53.122;12.776;2023-08-20T04:27:32;101160.69;;;21.15;99.06
31092;BME280;67728;53.122;12.776;2023-08-20T04:29:03;101161.78;;;21.11;99.51
31092;BME280;67728;53.122;12.776;2023-08-20T04:30:36;101155.50;;;21.14;99.20
31092;BME280;67728;53.122;12.776;2023-08-20T04:32:08;101155.41;;;21.15;99.29
31092;BME280;67728;53.122;12.776;2023-08-20T04:33:39;101145.72;;;21.16;99.47
31092;BME280;67728;53.122;12.776;2023-08-20T04:35:10;101149.28;;;21.15;99.08
31092;BME280;67728;53.122;12.776;2023-08-20T04:36:41;101151.25;;;21.11;99.13
31092;BME280;67728;53.122;12.776;2023-08-20T04:38:12;101152.84;;;21.14;99.27
31092;BME280;67728;53.122;12.776;2023-08-20T04:39:43;101153.38;;;21.03;99.25
31092;BME280;67728;53.122;12.776;2023-08-20T04:41:14;101158.72;;;21.02;99.02
31092;BME280;67728;53.122;12.776;2023-08-20T04:42:45;101158.66;;;21.03;99.19
31092;BME280;67728;53.122;12.776;2023-08-20T04:44:16;101163.13;;;21.01;98.80
31092;BME280;67728;53.122;12.776;2023-08-20T04:45:49;101160.50;;;21.01;98.63
31092;BME280;67728;53.122;12.776;2023-08-20T04:47:21;101167.50;;;21.02;98.48
31092;BME280;67728;53.122;12.776;2023-08-20T04:48:53;101172.69;;;21.04;98.45
31092;BME280;67728;53.122;12.776;2023-08-20T04:50:23;101170.13;;;21.02;98.60
31092;BME280;67728;53.122;12.776;2023-08-20T04:51:55;101168.91;;;20.92;98.51
31092;BME280;67728;53.122;12.776;2023-08-20T04:53:26;101178.91;;;20.85;98.67
31092;BME280;67728;53.122;12.776;2023-08-20T04:54:57;101184.72;;;20.92;98.56
31092;BME280;67728;53.122;12.776;2023-08-20T04:56:29;101180.53;;;20.88;98.63
31092;BME280;67728;53.122;12.776;2023-08-20T04:58:01;101181.78;;;20.81;98.56
31092;BME280;67728;53.122;12.776;2023-08-20T04:59:32;101176.91;;;20.73;98.01
31092;BME280;67728;53.122;12.776;2023-08-20T05:01:03;101178.28;;;20.80;98.68
31092;BME280;67728;53.122;12.776;2023-08-20T05:02:37;101184.31;;;20.82;97.78
31092;BME280;67728;53.122;12.776;2023-08-20T05:04:07;101181.84;;;20.79;97.87
31092;BME280;67728;53.122;12.776;2023-08-20T05:05:39;101182.63;;;20.81;97.64
31092;BME280;67728;53.122;12.776;2023-08-20T05:07:09;101185.28;;;20.81;97.80
31092;BME280;67728;53.122;12.776;2023-08-20T05:08:42;101186.97;;;20.82;97.89
31092;BME280;67728;53.122;12.776;2023-08-20T05:10:13;101187.72;;;20.84;97.49
31092;BME280;67728;53.122;12.776;2023-08-20T05:11:44;101183.25;;;20.86;97.61
31092;BME280;67728;53.122;12.776;2023-08-20T05:13:15;101184.94;;;20.87;97.36
31092;BME280;67728;53.122;12.776;2023-08-20T05:14:47;101174.78;;;20.80;97.03
31092;BME280;67728;53.122;12.776;2023-08-20T05:16:17;101190.84;;;20.75;97.42
31092;BME280;67728;53.122;12.776;2023-08-20T05:17:50;101184.41;;;20.81;97.43
31092;BME280;67728;53.122;12.776;2023-08-20T05:19:21;101192.94;;;20.86;97.31
31092;BME280;67728;53.122;12.776;2023-08-20T05:20:53;101200.00;;;20.85;96.78
31092;BME280;67728;53.122;12.776;2023-08-20T05:22:23;101203.19;;;20.92;97.50
31092;BME280;67728;53.122;12.776;2023-08-20T05:23:55;101201.63;;;20.88;96.80
31092;BME280;67728;53.122;12.776;2023-08-20T05:25:26;101192.84;;;20.87;96.72
31092;BME280;67728;53.122;12.776;2023-08-20T05:27:05;101201.78;;;20.85;97.02
31092;BME280;67728;53.122;12.776;2023-08-20T05:28:36;101203.34;;;20.89;96.73
31092;BME280;67728;53.122;12.776;2023-08-20T05:30:08;101212.88;;;20.92;96.86
31092;BME280;67728;53.122;12.776;2023-08-20T05:31:40;101215.44;;;20.93;96.94
31092;BME280;67728;53.122;12.776;2023-08-20T05:33:12;101222.47;;;20.93;96.83
31092;BME280;67728;53.122;12.776;2023-08-20T05:34:43;101223.03;;;20.82;96.67
31092;BME280;67728;53.122;12.776;2023-08-20T05:36:14;101218.53;;;20.84;96.80
31092;BME280;67728;53.122;12.776;2023-08-20T05:37:46;101216.91;;;20.81;96.21
31092;BME280;67728;53.122;12.776;2023-08-20T05:39:17;101222.81;;;20.86;96.41
31092;BME280;67728;53.122;12.776;2023-08-20T05:40:48;101217.28;;;20.91;96.49
31092;BME280;67728;53.122;12.776;2023-08-20T05:42:20;101224.81;;;20.99;96.17
31092;BME280;67728;53.122;12.776;2023-08-20T05:43:50;101229.78;;;21.05;95.84
31092;BME280;67728;53.122;12.776;2023-08-20T05:45:22;101230.28;;;21.13;95.83
31092;BME280;67728;53.122;12.776;2023-08-20T05:46:52;101239.75;;;21.17;94.82
31092;BME280;67728;53.122;12.776;2023-08-20T05:48:25;101232.78;;;21.16;95.09
31092;BME280;67728;53.122;12.776;2023-08-20T05:49:56;101243.47;;;21.13;94.95
31092;BME280;67728;53.122;12.776;2023-08-20T05:51:27;101243.13;;;21.02;95.09
31092;BME280;67728;53.122;12.776;2023-08-20T05:52:58;101239.94;;;20.95;95.13
31092;BME280;67728;53.122;12.776;2023-08-20T05:54:29;101245.78;;;21.02;95.63
31092;BME280;67728;53.122;12.776;2023-08-20T05:56:00;101239.88;;;20.97;94.97
31092;BME280;67728;53.122;12.776;2023-08-20T05:57:31;101242.03;;;20.88;95.15
31092;BME280;67728;53.122;12.776;2023-08-20T05:59:03;101252.22;;;20.96;95.48
31092;BME280;67728;53.122;12.776;2023-08-20T06:00:34;101245.13;;;20.79;95.13
31092;BME280;67728;53.122;12.776;2023-08-20T06:02:06;101257.00;;;20.88;95.37
31092;BME280;67728;53.122;12.776;2023-08-20T06:03:38;101258.19;;;21.00;95.59
31092;BME280;67728;53.122;12.776;2023-08-20T06:05:10;101258.53;;;21.11;94.97
31092;BME280;67728;53.122;12.776;2023-08-20T06:06:40;101263.81;;;21.11;94.94
31092;BME280;67728;53.122;12.776;2023-08-20T06:08:12;101252.16;;;21.15;94.25
31092;BME280;67728;53.122;12.776;2023-08-20T06:09:43;101248.91;;;21.10;94.56
31092;BME280;67728;53.122;12.776;2023-08-20T06:11:15;101256.69;;;21.13;94.82
31092;BME280;67728;53.122;12.776;2023-08-20T06:12:45;101259.50;;;20.91;94.40
31092;BME280;67728;53.122;12.776;2023-08-20T06:14:17;101262.47;;;21.02;94.46
31092;BME280;67728;53.122;12.776;2023-08-20T06:15:48;101264.38;;;20.99;94.45
31092;BME280;67728;53.122;12.776;2023-08-20T06:17:19;101262.69;;;20.98;94.57
31092;BME280;67728;53.122;12.776;2023-08-20T06:18:51;101254.41;;;21.05;94.88
31092;BME280;67728;53.122;12.776;2023-08-20T06:20:23;101257.91;;;21.06;94.10
31092;BME280;67728;53.122;12.776;2023-08-20T06:21:53;101255.03;;;21.10;93.99
31092;BME280;67728;53.122;12.776;2023-08-20T06:23:25;101263.03;;;21.09;93.87
31092;BME280;67728;53.122;12.776;2023-08-20T06:24:55;101259.47;;;21.10;94.36
31092;BME280;67728;53.122;12.776;2023-08-20T06:26:28;101251.31;;;21.14;94.61
31092;BME280;67728;53.122;12.776;2023-08-20T06:27:58;101265.75;;;21.07;94.09
31092;BME280;67728;53.122;12.776;2023-08-20T06:29:30;101267.03;;;20.99;93.14
31092;BME280;67728;53.122;12.776;2023-08-20T06:31:01;101273.00;;;21.02;93.59
31092;BME280;67728;53.122;12.776;2023-08-20T06:32:33;101269.16;;;21.09;93.80
31092;BME280;67728;53.122;12.776;2023-08-20T06:34:06;101272.16;;;21.02;93.30
31092;BME280;67728;53.122;12.776;2023-08-20T06:35:37;101273.78;;;21.04;93.22
31092;BME280;67728;53.122;12.776;2023-08-20T06:37:09;101270.16;;;21.07;93.30
31092;BME280;67728;53.122;12.776;2023-08-20T06:38:39;101270.72;;;21.13;93.40
31092;BME280;67728;53.122;12.776;2023-08-20T06:40:11;101275.44;;;21.07;92.82
31092;BME280;67728;53.122;12.776;2023-08-20T06:41:43;101277.06;;;21.09;93.01
31092;BME280;67728;53.122;12.776;2023-08-20T06:43:15;101266.59;;;21.08;92.58
31092;BME280;67728;53.122;12.776;2023-08-20T06:44:46;101269.91;;;20.94;93.30
31092;BME280;67728;53.122;12.776;2023-08-20T06:46:17;101271.09;;;20.87;93.29
31092;BME280;67728;53.122;12.776;2023-08-20T06:47:48;101267.16;;;20.78;93.23
31092;BME280;67728;53.122;12.776;2023-08-20T06:49:21;101272.34;;;20.80;93.00
31092;BME280;67728;53.122;12.776;2023-08-20T06:50:52;101276.72;;;20.98;92.55
31092;BME280;67728;53.122;12.776;2023-08-20T06:52:23;101278.66;;;20.95;92.98
31092;BME280;67728;53.122;12.776;2023-08-20T06:53:54;101272.78;;;20.90;92.52
31092;BME280;67728;53.122;12.776;2023-08-20T06:55:25;101282.00;;;20.98;92.60
31092;BME280;67728;53.122;12.776;2023-08-20T06:56:57;101280.75;;;21.24;91.66
31092;BME280;67728;53.122;12.776;2023-08-20T06:58:28;101278.09;;;21.24;90.18
31092;BME280;67728;53.122;12.776;2023-08-20T06:59:59;101283.53;;;21.21;89.02
31092;BME280;67728;53.122;12.776;2023-08-20T07:01:30;101279.28;;;21.35;88.11
31092;BME280;67728;53.122;12.776;2023-08-20T07:03:01;101277.78;;;21.47;88.24
31092;BME280;67728;53.122;12.776;2023-08-20T07:04:35;101280.72;;;21.58;86.24
31092;BME280;67728;53.122;12.776;2023-08-20T07:06:05;101273.09;;;21.69;85.65
31092;BME280;67728;53.122;12.776;2023-08-20T07:07:38;101283.19;;;21.78;85.31
31092;BME280;67728;53.122;12.776;2023-08-20T07:09:08;101284.34;;;21.73;84.64
31092;BME280;67728;53.122;12.776;2023-08-20T07:10:40;101277.09;;;21.76;83.21
31092;BME280;67728;53.122;12.776;2023-08-20T07:12:10;101281.88;;;21.87;83.49
31092;BME280;67728;53.122;12.776;2023-08-20T07:13:42;101278.75;;;21.79;83.13
31092;BME280;67728;53.122;12.776;2023-08-20T07:15:14;101285.41;;;21.86;83.64
31092;BME280;67728;53.122;12.776;2023-08-20T07:16:44;101279.53;;;21.81;82.83
31092;BME280;67728;53.122;12.776;2023-08-20T07:18:16;101279.38;;;21.84;82.80
31092;BME280;67728;53.122;12.776;2023-08-20T07:19:48;101281.63;;;21.91;81.51
31092;BME280;67728;53.122;12.776;2023-08-20T07:21:20;101281.91;;;22.02;80.56
31092;BME280;67728;53.122;12.776;2023-08-20T07:22:50;101279.75;;;22.09;79.53
31092;BME280;67728;53.122;12.776;2023-08-20T07:24:22;101276.09;;;22.12;79.84
31092;BME280;67728;53.122;12.776;2023-08-20T07:26:04;101273.41;;;22.13;80.29
31092;BME280;67728;53.122;12.776;2023-08-20T07:27:36;101284.81;;;22.14;78.19
31092;BME280;67728;53.122;12.776;2023-08-20T07:29:07;101279.69;;;22.11;78.19
31092;BME280;67728;53.122;12.776;2023-08-20T07:30:38;101275.34;;;22.10;78.52
31092;BME280;67728;53.122;12.776;2023-08-20T07:32:10;101272.97;;;22.21;78.94
31092;BME280;67728;53.122;12.776;2023-08-20T07:33:41;101277.41;;;22.20;79.92
31092;BME280;67728;53.122;12.776;2023-08-20T07:35:13;101281.28;;;22.30;78.34
31092;BME280;67728;53.122;12.776;2023-08-20T07:36:44;101276.63;;;22.18;77.91
31092;BME280;67728;53.122;12.776;2023-08-20T07:38:17;101284.06;;;22.27;78.14
31092;BME280;67728;53.122;12.776;2023-08-20T07:39:48;101281.88;;;22.35;77.52
31092;BME280;67728;53.122;12.776;2023-08-20T07:41:20;101281.28;;;22.46;76.65
31092;BME280;67728;53.122;12.776;2023-08-20T07:42:50;101278.03;;;22.41;74.76
31092;BME280;67728;53.122;12.776;2023-08-20T07:44:22;101279.22;;;22.51;75.46
31092;BME280;67728;53.122;12.776;2023-08-20T07:45:52;101292.78;;;22.45;75.84
31092;BME280;67728;53.122;12.776;2023-08-20T07:47:24;101289.13;;;22.63;75.94
31092;BME280;67728;53.122;12.776;2023-08-20T07:48:56;101284.88;;;22.76;74.89
31092;BME280;67728;53.122;12.776;2023-08-20T07:50:28;101274.47;;;22.73;73.54
31092;BME280;67728;53.122;12.776;2023-08-20T07:51:59;101274.19;;;22.78;73.40
31092;BME280;67728;53.122;12.776;2023-08-20T07:53:30;101276.38;;;22.85;73.81